Accueil
METAR-TAF:

METAR-TAF

Aéroports :

Hermosillo, Mexique

latitude: 29-04N, longitude: 110-57W, altitude: 211 m

Observation

Le bulletin a été fait il y a 46 minutes, à 21:42 UTC
Vent calme
Température 41°C
Humidité 8%
Pression 1013 hPa
Visibilité: 16.1 km
Ciel clair

METAR: MMHO 232142Z 00000KT 10SM SKC 41/01 A2992 RMK HZY

Heure: 15:28 (22:28 UTC)

Prévision

Le bulletin a été fait il y a 5 heures et 34 minutes, à 16:54 UTC
Prévision valable du 23 à 18 UTC au 24 à 18 UTC
Vent 8 kt de nord
Visibilité: 10 km
Ciel clair
A partir de 24 à 0300 UTC
Vent 5 kt de ouest
Visibilité: 10 km
Ciel clair
A partir de 24 à 1600 UTC
Vent 8 kt de est
Visibilité: 10 km
Ciel clair

TAF: MMHO 231654Z 2318/2418 35008KT P6SM SKC FM240300 28005KT P6SM SKC FM241600 08008KT P6SM SKC

Observations et prévisions météorologiques de plus de 4000 aéroports (messages METAR et TAF).

Les stations disponibles sont représentées par des disques jaunes et rouges sur la carte.

Passer la souris dessus pour voir le nom de la station.

Cliquer dessus pour voir les observations et prévisions météorologiques.

Pour changer de carte: cliquez sur les boutons verts avec une croix noire pour zoomer, sur le bouton vert avec un tiret pour effectuer un zoom arrière, ou sur les flèches vertes pour les cartes adjacentes.


METAR-TAF: